createdAt,value
2022-11-12T00:03:36.379Z,7.64
2022-11-12T00:07:56.879Z,7.69
2022-11-12T00:12:17.062Z,7.75
2022-11-12T00:16:37.347Z,7.80
2022-11-12T00:20:57.766Z,7.86
2022-11-12T00:25:18.034Z,7.91
2022-11-12T00:29:39.046Z,7.95
2022-11-12T00:33:59.388Z,7.99
2022-11-12T00:38:19.652Z,8.07
2022-11-12T00:42:40.018Z,8.15
2022-11-12T00:47:00.397Z,8.26
2022-11-12T00:51:20.628Z,8.33
2022-11-12T00:55:41.135Z,8.39
2022-11-12T01:00:01.636Z,8.44
2022-11-12T01:04:21.925Z,8.52
2022-11-12T01:08:43.264Z,8.56
2022-11-12T01:13:03.665Z,8.60
2022-11-12T01:17:23.924Z,8.62
2022-11-12T01:21:45.375Z,8.66
2022-11-12T01:26:06.882Z,8.71
2022-11-12T01:30:27.178Z,8.74
2022-11-12T01:34:47.645Z,8.77
2022-11-12T01:39:09.004Z,8.78
2022-11-12T01:43:29.364Z,8.79
2022-11-12T01:47:52.311Z,8.82
2022-11-12T01:52:39.277Z,8.85
2022-11-12T01:56:59.766Z,8.89
2022-11-12T02:01:20.066Z,8.87
2022-11-12T02:05:42.581Z,8.87
2022-11-12T02:10:04.429Z,8.87
2022-11-12T02:14:24.881Z,8.87
2022-11-12T02:18:45.174Z,8.86
2022-11-12T02:23:07.261Z,8.87
2022-11-12T02:27:28.373Z,8.86
2022-11-12T02:31:48.520Z,8.83
2022-11-12T02:36:09.171Z,8.83
2022-11-12T02:40:29.170Z,8.83
2022-11-12T02:44:49.429Z,8.83
2022-11-12T02:49:09.828Z,8.84
2022-11-12T02:53:30.208Z,8.84
2022-11-12T02:57:50.486Z,8.85
2022-11-12T03:02:10.837Z,8.83
2022-11-12T03:06:31.193Z,8.83
2022-11-12T03:10:52.181Z,8.84
2022-11-12T03:15:12.469Z,8.84
2022-11-12T03:19:32.777Z,8.81
2022-11-12T03:23:52.982Z,8.80
2022-11-12T03:28:15.035Z,8.78
2022-11-12T03:32:35.099Z,8.77
2022-11-12T03:36:55.433Z,8.78
2022-11-12T03:41:15.805Z,8.78
2022-11-12T03:45:36.247Z,8.76
2022-11-12T03:49:56.458Z,8.77
2022-11-12T03:54:16.808Z,8.75
2022-11-12T03:58:36.954Z,8.71
2022-11-12T04:02:58.121Z,8.68
2022-11-12T04:07:37.367Z,8.65
2022-11-12T04:12:17.619Z,8.63
2022-11-12T04:16:56.601Z,8.62
2022-11-12T04:21:35.365Z,8.61
2022-11-12T04:26:14.290Z,8.60
2022-11-12T04:30:34.520Z,8.59
2022-11-12T04:34:55.117Z,8.58
2022-11-12T04:39:15.325Z,8.59
2022-11-12T04:43:54.314Z,8.55
2022-11-12T04:48:14.843Z,8.57
2022-11-12T04:52:34.996Z,8.57
2022-11-12T04:56:55.426Z,8.57
2022-11-12T05:01:15.785Z,8.54
2022-11-12T05:05:36.176Z,8.50
2022-11-12T05:09:56.543Z,8.47
2022-11-12T05:14:16.844Z,8.44
2022-11-12T05:18:37.013Z,8.39
2022-11-12T05:23:07.195Z,8.35
2022-11-12T05:27:28.201Z,8.32
2022-11-12T05:31:48.093Z,8.25
2022-11-12T05:36:08.718Z,8.21
2022-11-12T05:40:28.827Z,8.17
2022-11-12T05:44:48.956Z,8.12
2022-11-12T05:49:09.290Z,8.08
2022-11-12T05:53:29.719Z,8.05
2022-11-12T05:57:49.945Z,8.00
2022-11-12T06:02:10.220Z,7.95
2022-11-12T06:06:30.622Z,7.89
2022-11-12T06:10:52.564Z,7.83
2022-11-12T06:15:13.024Z,7.77
2022-11-12T06:19:33.561Z,7.72
2022-11-12T06:23:59.554Z,7.66
2022-11-12T06:28:19.728Z,7.59
2022-11-12T06:32:40.327Z,7.50
2022-11-12T06:37:00.423Z,7.44
2022-11-12T06:41:20.474Z,7.41
2022-11-12T06:45:40.773Z,7.37
2022-11-12T06:50:02.468Z,7.34
2022-11-12T06:54:23.153Z,7.29
2022-11-12T06:58:43.810Z,7.21
2022-11-12T07:03:08.471Z,7.08
2022-11-12T07:07:29.839Z,7.03
2022-11-12T07:11:50.081Z,7.02
2022-11-12T07:16:14.156Z,6.96
2022-11-12T07:20:34.489Z,6.91
2022-11-12T07:24:54.881Z,6.87
2022-11-12T07:29:30.084Z,6.85
2022-11-12T07:33:55.679Z,6.83
2022-11-12T07:38:15.997Z,6.80
2022-11-12T07:42:36.600Z,6.82
2022-11-12T07:46:57.162Z,6.83
2022-11-12T07:51:20.775Z,6.85
2022-11-12T07:55:41.041Z,6.89
2022-11-12T08:00:01.423Z,6.93
2022-11-12T08:04:21.625Z,7.03
2022-11-12T08:08:41.830Z,7.11
2022-11-12T08:13:02.169Z,7.15
2022-11-12T08:17:22.484Z,7.20
2022-11-12T08:21:42.853Z,7.25
2022-11-12T08:26:05.299Z,7.30
2022-11-12T08:30:29.944Z,7.38
2022-11-12T08:34:50.233Z,7.44
2022-11-12T08:39:10.665Z,7.49
2022-11-12T08:43:30.985Z,7.52
2022-11-12T08:47:51.161Z,7.56
2022-11-12T08:52:11.217Z,7.62
2022-11-12T08:56:31.422Z,7.73
2022-11-12T09:00:52.558Z,7.83
2022-11-12T09:05:12.698Z,7.92
2022-11-12T09:09:32.899Z,8.00
2022-11-12T09:13:54.513Z,8.11
2022-11-12T09:18:17.716Z,8.18
2022-11-12T09:22:38.064Z,8.25
2022-11-12T09:26:59.176Z,8.35
2022-11-12T09:31:19.053Z,8.45
2022-11-12T09:35:39.428Z,8.60
2022-11-12T09:39:59.776Z,8.72
2022-11-12T09:44:22.254Z,8.82
2022-11-12T09:48:48.692Z,8.89
2022-11-12T09:53:17.785Z,9.01
2022-11-12T09:57:39.074Z,9.07
2022-11-12T10:02:24.547Z,9.15
2022-11-12T10:07:03.349Z,9.23
2022-11-12T10:12:04.299Z,9.32
2022-11-12T10:16:44.541Z,9.39
2022-11-12T10:21:30.584Z,9.46
2022-11-12T10:25:53.590Z,9.55
2022-11-12T10:30:19.449Z,9.63
2022-11-12T10:34:40.367Z,9.70
2022-11-12T10:39:00.498Z,9.78
2022-11-12T10:43:23.679Z,9.86
2022-11-12T10:47:46.837Z,9.93
2022-11-12T10:52:21.407Z,10.04
2022-11-12T10:56:41.776Z,10.12
2022-11-12T11:01:05.251Z,10.20
2022-11-12T11:05:50.390Z,10.29
2022-11-12T11:10:27.112Z,10.38
2022-11-12T11:14:47.417Z,10.47
2022-11-12T11:19:09.326Z,10.56
2022-11-12T11:23:36.865Z,10.62
2022-11-12T11:28:30.488Z,10.68
2022-11-12T11:32:50.648Z,10.73
2022-11-12T11:37:31.303Z,10.82
2022-11-12T11:42:16.151Z,10.88
2022-11-12T11:46:45.409Z,10.94
2022-11-12T11:51:21.004Z,11.01
2022-11-12T11:55:54.871Z,11.06
2022-11-12T12:00:25.606Z,11.10
2022-11-12T12:04:50.652Z,11.14
2022-11-12T12:09:18.918Z,11.22
2022-11-12T12:14:14.156Z,11.28
2022-11-12T12:18:50.963Z,11.31
2022-11-12T12:23:25.305Z,11.36
2022-11-12T12:28:04.096Z,11.41
2022-11-12T12:32:33.594Z,11.45
2022-11-12T12:37:07.161Z,11.46
2022-11-12T12:41:39.586Z,11.48
2022-11-12T12:45:59.844Z,11.51
2022-11-12T12:50:21.525Z,11.53
2022-11-12T12:54:41.800Z,11.57
2022-11-12T12:59:08.236Z,11.63
2022-11-12T13:03:46.372Z,11.70
2022-11-12T13:08:13.368Z,11.73
2022-11-12T13:13:04.646Z,11.74
2022-11-12T13:17:48.207Z,11.82
2022-11-12T13:22:17.658Z,11.87
2022-11-12T13:26:44.245Z,11.91
2022-11-12T13:31:25.628Z,11.93
2022-11-12T13:35:46.527Z,11.99
2022-11-12T13:40:13.449Z,12.02
2022-11-12T13:44:35.321Z,12.03
2022-11-12T13:49:11.699Z,12.08
2022-11-12T13:53:32.813Z,12.08
2022-11-12T13:57:56.555Z,12.10
2022-11-12T14:02:22.909Z,12.12
2022-11-12T14:06:46.857Z,12.12
2022-11-12T14:11:21.828Z,12.13
2022-11-12T14:16:14.353Z,12.14
2022-11-12T14:20:39.694Z,12.14
2022-11-12T14:25:01.528Z,12.14
2022-11-12T14:29:21.845Z,12.16
2022-11-12T14:33:42.183Z,12.19
2022-11-12T14:38:14.753Z,12.24
2022-11-12T14:42:35.680Z,12.22
2022-11-12T14:46:58.894Z,12.20
2022-11-12T14:51:20.379Z,12.17
2022-11-12T14:55:49.350Z,12.16
2022-11-12T15:00:21.718Z,12.12
2022-11-12T15:04:45.243Z,12.07
2022-11-12T15:09:05.889Z,12.02
2022-11-12T15:13:27.633Z,11.97
2022-11-12T15:17:57.630Z,11.92
2022-11-12T15:22:22.877Z,11.85
2022-11-12T15:26:46.100Z,11.80
2022-11-12T15:31:16.384Z,11.78
2022-11-12T15:35:46.312Z,11.75
2022-11-12T15:40:15.951Z,11.69
2022-11-12T15:44:37.277Z,11.62
2022-11-12T15:48:57.138Z,11.53
2022-11-12T15:53:17.873Z,11.52
2022-11-12T15:57:44.476Z,11.46
2022-11-12T16:02:18.028Z,11.40
2022-11-12T16:06:39.100Z,11.33
2022-11-12T16:11:00.223Z,11.26
2022-11-12T16:15:25.535Z,11.20
2022-11-12T16:19:45.857Z,11.14
2022-11-12T16:24:06.523Z,11.12
2022-11-12T16:28:26.877Z,11.06
2022-11-12T16:32:48.106Z,11.02
2022-11-12T16:37:14.387Z,10.99
2022-11-12T16:41:34.343Z,10.92
2022-11-12T16:45:54.573Z,10.87
2022-11-12T16:50:17.891Z,10.83
2022-11-12T16:54:38.172Z,10.81
2022-11-12T16:58:58.448Z,10.77
2022-11-12T17:03:19.583Z,10.74
2022-11-12T17:07:39.615Z,10.69
2022-11-12T17:11:59.811Z,10.63
2022-11-12T17:16:20.185Z,10.60
2022-11-12T17:20:40.555Z,10.56
2022-11-12T17:25:00.832Z,10.52
2022-11-12T17:29:21.195Z,10.48
2022-11-12T17:33:52.204Z,10.47
2022-11-12T17:38:12.590Z,10.45
2022-11-12T17:42:32.958Z,10.41
2022-11-12T17:46:53.303Z,10.40
2022-11-12T17:51:15.975Z,10.40
2022-11-12T17:55:36.033Z,10.39
2022-11-12T17:59:56.179Z,10.37
2022-11-12T18:04:16.557Z,10.31
2022-11-12T18:08:36.805Z,10.27
2022-11-12T18:12:57.879Z,10.22
2022-11-12T18:17:17.984Z,10.17
2022-11-12T18:21:42.020Z,10.11
2022-11-12T18:26:02.488Z,10.06
2022-11-12T18:30:23.125Z,10.00
2022-11-12T18:34:45.325Z,9.93
2022-11-12T18:39:05.588Z,9.87
2022-11-12T18:43:26.099Z,9.80
2022-11-12T18:47:46.640Z,9.77
2022-11-12T18:52:06.852Z,9.76
2022-11-12T18:56:27.060Z,9.72
2022-11-12T19:00:48.056Z,9.70
2022-11-12T19:05:09.102Z,9.68
2022-11-12T19:09:29.390Z,9.68
2022-11-12T19:13:54.329Z,9.65
2022-11-12T19:18:14.719Z,9.61
2022-11-12T19:22:35.072Z,9.56
2022-11-12T19:26:55.512Z,9.54
2022-11-12T19:31:21.140Z,9.55
2022-11-12T19:35:41.637Z,9.54
2022-11-12T19:40:02.145Z,9.50
2022-11-12T19:44:22.327Z,9.47
2022-11-12T19:48:43.167Z,9.46
2022-11-12T19:53:03.932Z,9.45
2022-11-12T19:57:24.292Z,9.43
2022-11-12T20:01:44.569Z,9.42
2022-11-12T20:06:10.670Z,9.39
2022-11-12T20:10:31.207Z,9.36
2022-11-12T20:14:51.648Z,9.33
2022-11-12T20:19:12.279Z,9.29
2022-11-12T20:23:36.278Z,9.22
2022-11-12T20:27:56.449Z,9.17
2022-11-12T20:32:16.744Z,9.12
2022-11-12T20:36:37.807Z,9.07
2022-11-12T20:41:02.899Z,9.02
2022-11-12T20:45:24.211Z,8.96
2022-11-12T20:49:44.283Z,8.91
2022-11-12T20:54:04.448Z,8.87
2022-11-12T20:58:25.400Z,8.84
2022-11-12T21:02:45.706Z,8.81
2022-11-12T21:07:06.289Z,8.80
2022-11-12T21:11:27.174Z,8.79
2022-11-12T21:15:47.390Z,8.78
2022-11-12T21:20:07.607Z,8.79
2022-11-12T21:24:27.635Z,8.77
2022-11-12T21:28:50.711Z,8.70
2022-11-12T21:33:12.402Z,8.67
2022-11-12T21:37:32.643Z,8.63
2022-11-12T21:41:54.922Z,8.59
2022-11-12T21:46:38.348Z,8.60
2022-11-12T21:51:10.471Z,8.62
2022-11-12T21:55:30.660Z,8.62
2022-11-12T21:59:51.188Z,8.64
2022-11-12T22:04:16.991Z,8.63
2022-11-12T22:08:39.230Z,8.60
2022-11-12T22:13:25.411Z,8.55
2022-11-12T22:17:40.333Z,8.54
2022-11-12T22:22:00.560Z,8.52
2022-11-12T22:26:25.340Z,8.51
2022-11-12T22:30:45.433Z,8.44
2022-11-12T22:35:06.411Z,8.44
2022-11-12T22:39:27.341Z,8.46
2022-11-12T22:43:52.515Z,8.47
2022-11-12T22:48:12.860Z,8.47
2022-11-12T22:52:33.227Z,8.45
2022-11-12T22:56:53.617Z,8.42
2022-11-12T23:01:21.503Z,8.38
2022-11-12T23:05:42.614Z,8.32
2022-11-12T23:10:02.951Z,8.29
2022-11-12T23:14:23.922Z,8.26
2022-11-12T23:18:43.999Z,8.24
2022-11-12T23:23:04.261Z,8.22
2022-11-12T23:27:24.815Z,8.25
2022-11-12T23:31:45.296Z,8.23
2022-11-12T23:36:12.474Z,8.21
2022-11-12T23:40:32.531Z,8.22
2022-11-12T23:44:52.767Z,8.21
2022-11-12T23:49:13.089Z,8.18
2022-11-12T23:53:34.673Z,8.15
2022-11-12T23:57:54.693Z,8.13
